Time;durP1;ratioP1;P1;durP2;ratioP2;P2;SDS_P1;SDS_P2;PMS_P1;PMS_P2;Temp;Humidity;BMP_temperature;BMP_pressure;BME280_temperature;BME280_humidity;BME280_pressure;Samples;Min_cycle;Max_cycle;Signal;HPM_P1;HPM_P2
2024/04/17 00:00:31;;;;;;;1017.17;937.10;;;5.80;99.90;;;;;;5522929;25;20536;-65
2024/04/17 00:02:57;;;;;;;1067.23;979.03;;;5.70;99.90;;;;;;5490504;26;20287;-64
2024/04/17 00:05:25;;;;;;;1064.63;978.67;;;5.60;99.90;;;;;;5490639;26;21008;-65
2024/04/17 00:07:51;;;;;;;1126.53;999.90;;;5.50;99.90;;;;;;5489675;26;20645;-65
2024/04/17 00:10:19;;;;;;;1120.17;999.90;;;5.50;99.90;;;;;;5488897;26;20585;-65
2024/04/17 00:12:45;;;;;;;1124.70;999.90;;;5.30;99.90;;;;;;5512876;26;20220;-65
2024/04/17 00:15:14;;;;;;;1136.37;999.90;;;5.30;99.90;;;;;;5510409;25;20469;-65
2024/04/17 00:17:42;;;;;;;1139.67;999.90;;;5.20;99.90;;;;;;5489333;26;20939;-64
2024/04/17 00:20:12;;;;;;;1152.20;999.90;;;5.10;99.90;;;;;;5519463;26;20540;-65
2024/04/17 00:22:37;;;;;;;1168.47;999.90;;;5.20;99.90;;;;;;5525464;25;20513;-65
2024/04/17 00:25:06;;;;;;;1134.57;999.90;;;5.10;99.90;;;;;;5526361;25;20464;-65
2024/04/17 00:27:32;;;;;;;1166.63;999.90;;;5.00;99.90;;;;;;5504727;25;20281;-64
2024/04/17 00:30:00;;;;;;;1157.97;999.90;;;5.00;99.90;;;;;;5501436;26;20878;-65
2024/04/17 00:32:26;;;;;;;1145.87;999.90;;;4.90;99.90;;;;;;5525344;25;20706;-64
2024/04/17 00:34:57;;;;;;;1145.07;999.90;;;4.80;99.90;;;;;;5499584;25;20477;-65
2024/04/17 00:37:23;;;;;;;1152.20;999.90;;;4.70;99.90;;;;;;5522901;26;20275;-64
2024/04/17 00:39:51;;;;;;;1150.13;999.90;;;4.60;99.90;;;;;;5525778;25;20570;-65
2024/04/17 00:42:17;;;;;;;1157.03;999.90;;;4.60;99.90;;;;;;5525030;25;20711;-64
2024/04/17 00:44:46;;;;;;;1175.97;999.90;;;4.50;99.90;;;;;;5525468;25;20468;-65
2024/04/17 00:47:12;;;;;;;1181.60;999.90;;;4.50;99.90;;;;;;5525922;25;20236;-65
2024/04/17 00:49:40;;;;;;;1201.67;999.90;;;4.40;99.90;;;;;;5518748;25;20529;-65
2024/04/17 00:52:10;;;;;;;1202.33;999.90;;;4.40;99.90;;;;;;5488401;26;20473;-64
2024/04/17 00:54:39;;;;;;;1207.13;999.90;;;4.30;99.90;;;;;;5488839;26;20458;-64
2024/04/17 00:57:05;;;;;;;1211.57;999.90;;;4.20;99.90;;;;;;5517731;26;20531;-65
2024/04/17 00:59:35;;;;;;;1196.40;999.90;;;4.20;99.90;;;;;;5525515;25;20460;-64
2024/04/17 01:02:01;;;;;;;1194.70;999.90;;;4.10;99.90;;;;;;5524889;25;20595;-65
2024/04/17 01:04:29;;;;;;;1196.70;999.90;;;4.10;99.90;;;;;;5505718;25;20480;-65
2024/04/17 01:06:55;;;;;;;1200.50;999.90;;;4.00;99.90;;;;;;5515370;26;20935;-65
2024/04/17 01:09:26;;;;;;;1191.93;999.90;;;4.00;99.90;;;;;;5525229;25;20460;-65
2024/04/17 01:11:52;;;;;;;1199.90;999.90;;;4.00;99.90;;;;;;5524579;25;20634;-65
2024/04/17 01:14:20;;;;;;;1199.47;999.90;;;4.00;99.90;;;;;;5524991;25;20469;-65
2024/04/17 01:16:47;;;;;;;1192.70;999.90;;;4.00;99.90;;;;;;5525002;25;20643;-64
2024/04/17 01:19:16;;;;;;;1189.70;999.90;;;4.00;99.90;;;;;;5509859;25;20525;-65
2024/04/17 01:21:42;;;;;;;1194.40;999.90;;;3.90;99.90;;;;;;5523340;25;20679;-64
2024/04/17 01:24:13;;;;;;;1194.83;999.90;;;3.90;99.90;;;;;;5524848;25;20573;-65
2024/04/17 01:26:39;;;;;;;1188.03;999.90;;;3.90;99.90;;;;;;5510853;26;20704;-65
2024/04/17 01:29:07;;;;;;;1181.87;999.90;;;3.90;99.90;;;;;;5525152;25;20476;-65
2024/04/17 01:31:35;;;;;;;1184.60;999.90;;;3.90;99.90;;;;;;5518354;25;20263;-65
2024/04/17 01:34:03;;;;;;;1193.40;999.90;;;3.80;99.90;;;;;;5516266;26;20515;-64
2024/04/17 01:36:29;;;;;;;1182.73;999.90;;;3.80;99.90;;;;;;5524732;25;21139;-64
2024/04/17 01:38:58;;;;;;;1192.67;999.90;;;3.70;99.90;;;;;;5524953;25;20468;-64
2024/04/17 01:41:26;;;;;;;1198.43;999.90;;;3.70;99.90;;;;;;5524388;25;20553;-64
2024/04/17 01:43:55;;;;;;;1192.33;999.90;;;3.60;99.90;;;;;;5524702;25;20928;-65
2024/04/17 01:46:20;;;;;;;1187.90;999.90;;;3.60;99.90;;;;;;5524717;25;20558;-65
2024/04/17 01:48:49;;;;;;;1185.20;999.90;;;3.60;99.90;;;;;;5500208;25;20873;-65
2024/04/17 01:51:14;;;;;;;1184.50;999.90;;;3.60;99.90;;;;;;5487107;26;20650;-64
2024/04/17 01:53:43;;;;;;;1167.77;999.90;;;3.60;99.90;;;;;;5495460;26;20472;-64
2024/04/17 01:56:09;;;;;;;1170.93;999.90;;;3.70;99.90;;;;;;5524661;25;20227;-64
2024/04/17 01:58:40;;;;;;;1183.07;999.90;;;3.70;99.90;;;;;;5524495;25;21018;-65
2024/04/17 02:01:06;;;;;;;1173.83;999.90;;;3.70;99.90;;;;;;5509836;25;20229;-65
2024/04/17 02:03:37;;;;;;;1166.60;999.90;;;3.60;99.90;;;;;;5523649;26;20468;-65
2024/04/17 02:06:04;;;;;;;1183.10;999.90;;;3.50;99.90;;;;;;5510953;25;20978;-65
2024/04/17 02:08:32;;;;;;;1186.80;999.90;;;3.40;99.90;;;;;;5487437;26;20725;-65
2024/04/17 02:10:58;;;;;;;1180.83;999.90;;;3.40;99.90;;;;;;5486922;26;20907;-65
2024/04/17 02:13:26;;;;;;;1182.40;999.90;;;3.40;99.90;;;;;;5490573;26;20526;-65
2024/04/17 02:16:00;;;;;;;1162.63;999.90;;;3.30;99.90;;;;;;5524373;25;20236;-65
2024/04/17 02:18:28;;;;;;;1174.50;999.90;;;3.30;99.90;;;;;;5523778;25;20516;-65
2024/04/17 02:20:54;;;;;;;1160.17;999.90;;;3.30;99.90;;;;;;5523481;25;20579;-65
2024/04/17 02:23:27;;;;;;;1163.73;999.90;;;3.20;99.90;;;;;;5524008;25;20508;-65
2024/04/17 02:25:53;;;;;;;1161.47;999.90;;;3.20;99.90;;;;;;5524222;25;20499;-65
2024/04/17 02:28:21;;;;;;;1169.70;999.90;;;3.20;99.90;;;;;;5491024;25;20453;-65
2024/04/17 02:30:47;;;;;;;1173.07;999.90;;;3.10;99.90;;;;;;5511087;26;20747;-65
2024/04/17 02:33:18;;;;;;;1183.67;999.90;;;3.10;99.90;;;;;;5493411;25;20567;-65
2024/04/17 02:35:44;;;;;;;1178.33;999.90;;;3.10;99.90;;;;;;5490804;26;20938;-65
2024/04/17 02:38:13;;;;;;;1177.20;999.90;;;3.10;99.90;;;;;;5506058;26;20508;-65
2024/04/17 02:40:39;;;;;;;1190.43;999.90;;;3.00;99.90;;;;;;5527126;25;20449;-64
2024/04/17 02:43:08;;;;;;;1182.10;999.90;;;2.90;99.90;;;;;;5498194;25;20473;-64
2024/04/17 02:45:34;;;;;;;1185.80;999.90;;;2.90;99.90;;;;;;5526978;26;20267;-65
2024/04/17 02:48:02;;;;;;;1182.00;999.90;;;2.90;99.90;;;;;;5527332;25;20577;-65
2024/04/17 02:50:30;;;;;;;1183.80;999.90;;;2.90;99.90;;;;;;5507623;25;20917;-65
2024/04/17 02:52:59;;;;;;;1194.90;999.90;;;2.80;99.90;;;;;;5517020;26;20543;-65
2024/04/17 02:55:25;;;;;;;1175.87;999.90;;;2.80;99.90;;;;;;5527124;25;20496;-65
2024/04/17 02:57:53;;;;;;;1183.47;999.90;;;2.80;99.90;;;;;;5527234;25;20468;-65
2024/04/17 03:00:19;;;;;;;1175.57;999.90;;;2.90;99.90;;;;;;5527214;25;20262;-65
2024/04/17 03:02:48;;;;;;;1173.77;999.90;;;2.80;99.90;;;;;;5517562;25;20461;-65
2024/04/17 03:05:13;;;;;;;1166.20;999.90;;;2.80;99.90;;;;;;5522006;26;20275;-64
2024/04/17 03:07:46;;;;;;;1169.33;999.90;;;2.80;99.90;;;;;;5527095;25;21107;-65
2024/04/17 03:10:12;;;;;;;1172.43;999.90;;;2.90;99.90;;;;;;5511318;25;20458;-64
2024/04/17 03:12:40;;;;;;;1167.70;999.90;;;2.90;99.90;;;;;;5489309;26;20735;-65
2024/04/17 03:15:06;;;;;;;1159.27;999.90;;;2.90;99.90;;;;;;5490268;26;20537;-65
2024/04/17 03:17:35;;;;;;;1160.13;999.90;;;2.90;99.90;;;;;;5490405;26;20542;-64
2024/04/17 03:20:01;;;;;;;1170.50;999.90;;;2.90;99.90;;;;;;5490919;26;20529;-65
2024/04/17 03:22:29;;;;;;;1151.23;999.90;;;2.90;99.90;;;;;;5489858;26;21008;-64
2024/04/17 03:24:58;;;;;;;1145.10;999.90;;;2.90;99.90;;;;;;5516564;26;20610;-64
2024/04/17 03:27:26;;;;;;;1152.63;999.90;;;2.90;99.90;;;;;;5523327;25;20864;-64
2024/04/17 03:29:52;;;;;;;1163.90;999.90;;;2.90;99.90;;;;;;5515951;26;20453;-65
2024/04/17 03:32:20;;;;;;;1160.17;999.90;;;2.80;99.90;;;;;;5508931;25;20521;-65
2024/04/17 03:34:47;;;;;;;1158.13;999.90;;;2.80;99.90;;;;;;5489843;26;20284;-65
2024/04/17 03:37:15;;;;;;;1164.30;999.90;;;2.90;99.90;;;;;;5489992;26;20505;-65
2024/04/17 03:39:44;;;;;;;1153.83;999.90;;;2.90;99.90;;;;;;5489835;26;21099;-65
2024/04/17 03:42:15;;;;;;;1147.57;999.90;;;2.90;99.90;;;;;;5519929;26;20465;-64
2024/04/17 03:44:43;;;;;;;1150.83;999.90;;;2.90;99.90;;;;;;5512075;26;20935;-64
2024/04/17 03:47:12;;;;;;;1145.03;999.90;;;2.90;99.90;;;;;;5511544;25;20574;-65
2024/04/17 03:49:37;;;;;;;1140.17;999.90;;;2.90;99.90;;;;;;5489685;26;20861;-65
2024/04/17 03:52:06;;;;;;;1153.17;999.90;;;3.00;99.90;;;;;;5502480;26;20457;-65
2024/04/17 03:54:32;;;;;;;1143.60;999.90;;;3.00;99.90;;;;;;5526463;25;20228;-64
2024/04/17 03:57:00;;;;;;;1135.73;999.90;;;3.00;99.90;;;;;;5526708;25;20538;-65
2024/04/17 03:59:29;;;;;;;1123.27;999.90;;;2.90;99.90;;;;;;5526703;25;20331;-64
2024/04/17 04:01:58;;;;;;;1108.63;986.53;;;2.90;99.90;;;;;;5525785;25;20464;-65
2024/04/17 04:04:24;;;;;;;1113.33;992.17;;;2.90;99.90;;;;;;5526674;25;20468;-65
2024/04/17 04:06:52;;;;;;;1132.20;999.90;;;2.90;99.90;;;;;;5528161;25;20556;-65
2024/04/17 04:09:18;;;;;;;1123.00;999.90;;;2.90;99.90;;;;;;5527247;25;20231;-64
2024/04/17 04:11:46;;;;;;;1121.10;998.30;;;3.00;99.90;;;;;;5525912;25;21011;-64
2024/04/17 04:14:12;;;;;;;1122.80;999.90;;;3.00;99.90;;;;;;5525762;25;20239;-64
2024/04/17 04:16:44;;;;;;;1119.43;998.97;;;3.10;99.90;;;;;;5496374;26;21014;-65
2024/04/17 04:19:10;;;;;;;1107.27;985.70;;;3.20;99.90;;;;;;5525982;25;20235;-64
2024/04/17 04:21:39;;;;;;;1127.47;999.90;;;3.20;99.90;;;;;;5525740;25;20581;-65
2024/04/17 04:24:05;;;;;;;1114.77;992.00;;;3.20;99.90;;;;;;5511586;25;20406;-65
2024/04/17 04:26:34;;;;;;;1123.83;999.90;;;3.20;99.90;;;;;;5526358;25;20513;-65
2024/04/17 04:29:00;;;;;;;1126.93;999.90;;;3.20;99.90;;;;;;5526285;25;20853;-65
2024/04/17 04:31:28;;;;;;;1133.07;999.90;;;3.20;99.90;;;;;;5525500;25;20590;-65
2024/04/17 04:33:57;;;;;;;1120.23;998.83;;;3.30;99.90;;;;;;5525481;25;20468;-65
2024/04/17 04:36:25;;;;;;;1122.23;999.90;;;3.20;99.90;;;;;;5525793;25;20542;-64
2024/04/17 04:38:51;;;;;;;1122.60;999.90;;;3.20;99.90;;;;;;5515497;25;20530;-65
2024/04/17 04:41:20;;;;;;;1140.97;999.90;;;3.20;99.90;;;;;;5505494;26;20453;-65
2024/04/17 04:43:46;;;;;;;1133.43;999.90;;;3.40;99.90;;;;;;5511567;25;20348;-65
2024/04/17 04:46:14;;;;;;;1130.57;999.90;;;3.40;99.90;;;;;;5519843;26;20460;-65
2024/04/17 04:48:40;;;;;;;1140.07;999.90;;;3.40;99.90;;;;;;5495577;25;20331;-65
2024/04/17 04:51:11;;;;;;;1147.20;999.90;;;3.40;99.90;;;;;;5510420;26;20885;-65
2024/04/17 04:53:38;;;;;;;1148.43;999.90;;;3.50;99.90;;;;;;5512484;26;20279;-65
2024/04/17 04:56:07;;;;;;;1132.90;999.90;;;3.60;99.90;;;;;;5511082;25;20453;-65
2024/04/17 04:58:33;;;;;;;1132.53;999.90;;;3.60;99.90;;;;;;5518515;25;20276;-65
2024/04/17 05:01:01;;;;;;;1141.10;999.90;;;3.70;99.90;;;;;;5487891;26;20944;-65
2024/04/17 05:03:27;;;;;;;1158.07;999.90;;;3.70;99.90;;;;;;5488260;26;20474;-64
2024/04/17 05:05:56;;;;;;;1141.33;999.90;;;3.70;99.90;;;;;;5487280;26;21131;-64
2024/04/17 05:08:24;;;;;;;1161.60;999.90;;;3.80;99.90;;;;;;5488288;26;20927;-64
2024/04/17 05:10:53;;;;;;;1150.23;999.90;;;3.80;99.90;;;;;;5487961;26;20846;-65
2024/04/17 05:13:19;;;;;;;1150.27;999.90;;;3.80;99.90;;;;;;5505027;26;20560;-65
2024/04/17 05:15:47;;;;;;;1157.73;999.90;;;3.80;99.90;;;;;;5522105;25;20578;-65
2024/04/17 05:18:13;;;;;;;1168.03;999.90;;;3.80;99.90;;;;;;5504246;26;20601;-65
2024/04/17 05:20:41;;;;;;;1159.20;999.90;;;3.90;99.90;;;;;;5511117;26;20881;-61
2024/04/17 05:23:07;;;;;;;1170.97;999.90;;;3.90;99.90;;;;;;5510251;25;20339;-65
2024/04/17 05:25:38;;;;;;;1172.87;999.90;;;3.90;99.90;;;;;;5495828;25;21006;-64
2024/04/17 05:28:05;;;;;;;1177.27;999.90;;;4.00;99.90;;;;;;5523024;25;20339;-65
2024/04/17 05:30:33;;;;;;;1165.33;999.90;;;4.00;99.90;;;;;;5524365;25;20887;-65
2024/04/17 05:32:59;;;;;;;1170.70;999.90;;;4.10;99.90;;;;;;5524160;25;20574;-65
2024/04/17 05:35:28;;;;;;;1150.00;999.90;;;4.20;99.90;;;;;;5522248;25;20460;-65
2024/04/17 05:37:53;;;;;;;1160.40;999.90;;;4.40;99.90;;;;;;5524133;25;20223;-64
2024/04/17 05:40:22;;;;;;;1162.10;999.90;;;4.40;99.90;;;;;;5519264;25;20460;-64
2024/04/17 05:42:50;;;;;;;1154.77;999.90;;;4.40;99.90;;;;;;5491750;26;20510;-65
2024/04/17 05:45:19;;;;;;;1149.67;999.90;;;4.50;99.90;;;;;;5518087;26;21031;-65
2024/04/17 05:47:45;;;;;;;1147.33;999.90;;;4.60;99.90;;;;;;5524887;25;20581;-65
2024/04/17 05:50:13;;;;;;;1133.83;999.90;;;4.80;99.90;;;;;;5524514;25;20983;-64
2024/04/17 05:52:39;;;;;;;1135.70;999.90;;;4.80;99.90;;;;;;5494610;26;20577;-65
2024/04/17 05:55:08;;;;;;;1138.67;999.90;;;4.90;99.90;;;;;;5524284;25;21014;-65
2024/04/17 05:57:34;;;;;;;1134.83;999.90;;;4.90;99.90;;;;;;5524406;25;20232;-65
2024/04/17 06:00:05;;;;;;;1138.20;999.90;;;4.90;99.90;;;;;;5524710;25;20528;-66
2024/04/17 06:02:31;;;;;;;1142.67;999.90;;;5.00;99.90;;;;;;5524005;25;20220;-65
2024/04/17 06:04:59;;;;;;;1135.87;999.90;;;5.00;99.90;;;;;;5524453;25;20504;-64
2024/04/17 06:07:25;;;;;;;1128.47;999.90;;;5.10;99.90;;;;;;5520489;25;20269;-65
2024/04/17 06:09:54;;;;;;;1148.30;999.90;;;5.10;99.90;;;;;;5490696;26;21230;-65
2024/04/17 06:12:20;;;;;;;1159.77;999.90;;;5.20;99.90;;;;;;5488291;26;20328;-68
2024/04/17 06:14:48;;;;;;;1153.20;999.90;;;5.40;99.90;;;;;;5514330;26;21022;-65
2024/04/17 06:17:16;;;;;;;1160.43;999.90;;;5.60;99.90;;;;;;5496260;26;20502;-65
2024/04/17 06:19:45;;;;;;;1149.53;999.90;;;5.80;99.90;;;;;;5527103;25;20465;-65
2024/04/17 06:22:11;;;;;;;1153.63;999.90;;;5.90;99.90;;;;;;5526178;25;20516;-64
2024/04/17 06:24:39;;;;;;;1146.10;999.90;;;6.20;99.90;;;;;;5525890;25;21007;-67
2024/04/17 06:27:05;;;;;;;1196.50;999.90;;;6.20;99.90;;;;;;5523267;25;20459;-65
2024/04/17 06:29:33;;;;;;;1144.73;999.90;;;6.40;99.90;;;;;;5524116;25;20227;-66
2024/04/17 06:31:59;;;;;;;1133.70;999.90;;;6.30;99.90;;;;;;5524415;25;20231;-65
2024/04/17 06:34:30;;;;;;;1150.17;999.90;;;6.30;99.90;;;;;;5520792;25;20524;-65
2024/04/17 06:36:56;;;;;;;1140.67;999.90;;;6.20;99.90;;;;;;5500449;26;20464;-65
2024/04/17 06:39:25;;;;;;;1155.03;999.90;;;6.10;99.90;;;;;;5523631;25;20549;-66
2024/04/17 06:41:51;;;;;;;1143.53;999.90;;;6.00;99.90;;;;;;5490053;26;20514;-66
2024/04/17 06:44:19;;;;;;;1150.10;999.90;;;6.00;99.90;;;;;;5490425;26;20466;-65
2024/04/17 06:46:45;;;;;;;1177.10;999.90;;;5.90;99.90;;;;;;5490544;26;20469;-66
2024/04/17 06:49:14;;;;;;;1151.43;999.90;;;6.00;99.90;;;;;;5521053;26;20582;-66
2024/04/17 06:51:43;;;;;;;1110.50;999.90;;;5.90;99.90;;;;;;5527017;25;20224;-66
2024/04/17 06:54:11;;;;;;;1072.13;980.13;;;5.80;99.90;;;;;;5527341;25;20985;-66
2024/04/17 06:56:37;;;;;;;1096.10;999.77;;;5.80;99.90;;;;;;5505497;26;20545;-65
2024/04/17 06:59:08;;;;;;;1112.00;999.90;;;5.80;99.90;;;;;;5519080;26;20513;-65
2024/04/17 07:01:34;;;;;;;1111.77;999.90;;;5.80;99.90;;;;;;5490042;25;20533;-65
2024/04/17 07:04:03;;;;;;;1086.30;993.70;;;5.90;99.90;;;;;;5490407;26;20591;-66
2024/04/17 07:06:29;;;;;;;1104.33;999.90;;;5.90;99.90;;;;;;5510437;26;20516;-66
2024/04/17 07:09:00;;;;;;;1115.47;999.90;;;5.80;99.90;;;;;;5516033;25;20462;-64
2024/04/17 07:11:29;;;;;;;1114.90;999.90;;;5.80;99.90;;;;;;5489564;26;20466;-66
2024/04/17 07:13:58;;;;;;;1116.17;999.90;;;5.80;99.90;;;;;;5490168;26;20864;-65
2024/04/17 07:16:24;;;;;;;1138.60;999.90;;;5.90;99.90;;;;;;5523979;26;20512;-65
2024/04/17 07:18:53;;;;;;;1130.60;999.90;;;5.90;99.90;;;;;;5527176;25;21025;-66
2024/04/17 07:21:19;;;;;;;1131.23;999.90;;;5.90;99.90;;;;;;5525646;25;20461;-65
2024/04/17 07:23:47;;;;;;;1066.83;987.20;;;5.80;99.90;;;;;;5527049;25;21067;-66
2024/04/17 07:26:16;;;;;;;992.27;914.07;;;5.80;99.90;;;;;;5495524;25;20267;-66
2024/04/17 07:28:44;;;;;;;1061.67;976.97;;;5.50;99.90;;;;;;5489713;26;20454;-66
2024/04/17 07:31:10;;;;;;;1135.07;999.90;;;5.40;99.90;;;;;;5519986;26;21070;-65
2024/04/17 07:33:38;;;;;;;1130.37;999.90;;;5.00;99.90;;;;;;5505189;26;20526;-66
2024/04/17 07:36:05;;;;;;;1145.17;999.90;;;5.00;99.90;;;;;;5519520;26;20292;-65
2024/04/17 07:38:33;;;;;;;1153.13;999.90;;;5.00;99.90;;;;;;5491193;25;20473;-66
2024/04/17 07:41:00;;;;;;;1193.90;999.90;;;5.10;99.90;;;;;;5489820;26;20473;-66
2024/04/17 07:43:33;;;;;;;1160.37;999.90;;;5.30;99.90;;;;;;5489478;26;20525;-66
2024/04/17 07:45:59;;;;;;;1183.07;999.90;;;5.50;99.90;;;;;;5502560;26;20842;-66
2024/04/17 07:48:27;;;;;;;1151.53;999.90;;;5.50;99.90;;;;;;5526689;25;20861;-66
2024/04/17 07:50:53;;;;;;;1156.37;999.90;;;5.50;99.90;;;;;;5526381;25;20509;-66
2024/04/17 07:53:22;;;;;;;1117.47;999.90;;;5.60;99.90;;;;;;5526754;25;20464;-66
2024/04/17 07:55:48;;;;;;;1123.73;999.90;;;5.50;99.90;;;;;;5526746;25;20561;-66
2024/04/17 07:58:16;;;;;;;1097.20;999.90;;;5.60;99.90;;;;;;5526416;25;21015;-66
2024/04/17 08:00:46;;;;;;;1059.23;978.90;;;5.60;99.90;;;;;;5526003;25;20327;-65
2024/04/17 08:03:15;;;;;;;1073.73;991.83;;;5.60;99.90;;;;;;5526178;25;20532;-66
2024/04/17 08:05:42;;;;;;;1054.40;976.40;;;5.80;99.90;;;;;;5518836;25;20533;-66
2024/04/17 08:08:10;;;;;;;1012.63;941.33;;;6.00;99.90;;;;;;5489678;26;20510;-65
2024/04/17 08:10:36;;;;;;;927.67;865.10;;;5.90;99.90;;;;;;5489431;26;20470;-67
2024/04/17 08:13:11;;;;;;;911.90;850.47;;;5.70;99.90;;;;;;5489028;26;20526;-64
2024/04/17 08:15:39;;;;;;;917.03;856.33;;;5.80;99.90;;;;;;5504955;26;20504;-66
2024/04/17 08:18:10;;;;;;;956.30;892.50;;;5.70;99.90;;;;;;5489835;26;20832;-66
2024/04/17 08:20:36;;;;;;;936.17;874.80;;;5.80;99.90;;;;;;5489532;26;20514;-67
2024/04/17 08:23:05;;;;;;;983.93;919.33;;;5.70;99.90;;;;;;5501709;26;20881;-67
2024/04/17 08:25:30;;;;;;;1019.07;951.47;;;5.80;99.90;;;;;;5506184;25;20555;-66
2024/04/17 08:27:59;;;;;;;1044.23;974.47;;;5.90;99.90;;;;;;5516493;26;20573;-66
2024/04/17 08:30:25;;;;;;;1029.40;959.17;;;5.90;99.90;;;;;;5526118;25;20572;-66
2024/04/17 08:32:53;;;;;;;1049.50;976.90;;;6.00;99.90;;;;;;5525442;25;20464;-69
2024/04/17 08:35:22;;;;;;;1071.83;997.73;;;6.00;99.90;;;;;;5508152;25;20579;-65
2024/04/17 08:37:50;;;;;;;1076.33;999.90;;;6.10;99.90;;;;;;5489163;26;21078;-66
2024/04/17 08:40:16;;;;;;;1052.87;985.13;;;6.20;99.90;;;;;;5488966;26;20482;-66
2024/04/17 08:42:45;;;;;;;1072.23;999.90;;;6.10;99.90;;;;;;5493975;26;20480;-66
2024/04/17 08:45:11;;;;;;;1085.83;999.90;;;6.20;99.90;;;;;;5510064;25;20458;-66
2024/04/17 08:47:42;;;;;;;1084.47;999.90;;;6.30;99.90;;;;;;5518011;25;20564;-66
2024/04/17 08:50:10;;;;;;;1074.50;999.90;;;6.30;99.90;;;;;;5517697;26;20461;-66
2024/04/17 08:52:43;;;;;;;1086.60;999.90;;;6.30;99.90;;;;;;5502401;26;20462;-65
2024/04/17 08:55:12;;;;;;;1061.33;992.67;;;6.30;99.90;;;;;;5487557;26;20458;-65
2024/04/17 08:57:41;;;;;;;1080.17;999.90;;;6.20;99.90;;;;;;5487508;26;20450;-66
2024/04/17 09:00:08;;;;;;;1077.87;999.90;;;6.30;99.90;;;;;;5487314;26;20505;-66
2024/04/17 09:02:38;;;;;;;1074.17;999.90;;;6.30;99.90;;;;;;5519939;26;20536;-67
2024/04/17 09:05:04;;;;;;;1088.53;999.90;;;6.40;99.90;;;;;;5501956;26;20516;-66
2024/04/17 09:07:35;;;;;;;1085.73;999.90;;;6.60;99.90;;;;;;5521661;25;20523;-66
2024/04/17 09:10:05;;;;;;;1083.67;999.90;;;6.60;99.90;;;;;;5523899;25;20499;-66
2024/04/17 09:12:34;;;;;;;1095.77;999.90;;;6.70;99.90;;;;;;5488350;25;21079;-66
2024/04/17 09:14:59;;;;;;;1086.40;999.90;;;6.80;99.90;;;;;;5516075;26;20499;-66
2024/04/17 09:17:28;;;;;;;1066.70;997.37;;;6.70;99.90;;;;;;5521617;25;21048;-66
2024/04/17 09:19:54;;;;;;;1070.33;999.90;;;6.60;99.90;;;;;;5488453;26;20225;-66
2024/04/17 09:22:22;;;;;;;1063.43;993.87;;;6.60;99.90;;;;;;5505462;26;20468;-66
2024/04/17 09:24:48;;;;;;;1074.60;999.90;;;6.50;99.90;;;;;;5525212;25;20677;-66
2024/04/17 09:27:19;;;;;;;1057.00;986.30;;;6.60;99.90;;;;;;5525383;25;20457;-65
2024/04/17 09:29:45;;;;;;;977.80;907.27;;;6.50;99.90;;;;;;5525471;25;20231;-66
2024/04/17 09:32:18;;;;;;;1026.57;956.60;;;6.60;99.90;;;;;;5524595;25;20590;-65
2024/04/17 09:34:44;;;;;;;1072.10;999.17;;;6.50;99.90;;;;;;5524967;25;20228;-66
2024/04/17 09:37:13;;;;;;;1086.00;999.90;;;6.60;99.90;;;;;;5524813;25;20521;-67
2024/04/17 09:39:39;;;;;;;1074.90;999.90;;;6.70;99.90;;;;;;5525191;25;20456;-66
2024/04/17 09:42:10;;;;;;;1079.67;999.90;;;6.90;99.90;;;;;;5524125;25;20460;-66
2024/04/17 09:44:40;;;;;;;1043.17;974.57;;;7.10;99.90;;;;;;5524652;25;20566;-66
2024/04/17 09:47:11;;;;;;;1048.50;977.90;;;7.30;99.90;;;;;;5524987;25;20522;-66
2024/04/17 09:49:43;;;;;;;1054.80;984.37;;;7.60;99.90;;;;;;5510171;26;21074;-66
2024/04/17 09:52:15;;;;;;;1004.50;939.17;;;7.80;99.90;;;;;;5525582;26;20456;-66
2024/04/17 09:54:42;;;;;;;994.30;930.63;;;7.90;99.90;;;;;;5510797;26;20452;-66
2024/04/17 09:57:13;;;;;;;942.77;882.30;;;8.00;99.90;;;;;;5525051;25;20520;-66
2024/04/17 09:59:42;;;;;;;926.03;867.23;;;8.00;99.90;;;;;;5510421;26;20472;-66
2024/04/17 10:02:16;;;;;;;914.67;857.63;;;7.90;99.90;;;;;;5524140;25;20456;-66
2024/04/17 10:04:42;;;;;;;879.20;826.37;;;7.80;99.90;;;;;;5524304;25;20472;-67
2024/04/17 10:07:13;;;;;;;752.73;708.00;;;7.80;99.90;;;;;;5509510;25;21012;-66
2024/04/17 10:09:40;;;;;;;759.27;716.50;;;7.50;99.90;;;;;;5487788;26;20458;-66
2024/04/17 10:12:12;;;;;;;748.43;712.10;;;7.30;99.90;;;;;;5487012;26;20809;-66
2024/04/17 10:14:41;;;;;;;789.10;748.37;;;7.40;99.90;;;;;;5509629;26;20585;-65
2024/04/17 10:17:10;;;;;;;778.57;738.00;;;7.60;99.90;;;;;;5524392;25;20471;-65
2024/04/17 10:19:37;;;;;;;842.93;795.43;;;7.90;99.90;;;;;;5524090;25;20456;-64
2024/04/17 10:22:07;;;;;;;792.30;751.90;;;8.20;99.90;;;;;;5523486;25;20557;-65
2024/04/17 10:24:33;;;;;;;810.57;769.43;;;8.20;99.90;;;;;;5523967;25;20512;-65
2024/04/17 10:27:06;;;;;;;870.33;821.07;;;8.30;99.90;;;;;;5523964;25;20456;-65
2024/04/17 10:29:32;;;;;;;786.60;748.63;;;8.40;99.90;;;;;;5524052;25;20464;-65
2024/04/17 10:32:05;;;;;;;768.77;733.37;;;8.60;99.90;;;;;;5523498;25;20939;-65
2024/04/17 10:34:42;;;;;;;731.67;701.03;;;8.50;99.90;;;;;;5523923;25;20287;-65
2024/04/17 10:37:12;;;;;;;480.67;463.87;;;8.40;99.90;;;;;;5524021;25;21022;-65
2024/04/17 10:39:39;;;;;;;351.57;340.37;;;8.40;99.90;;;;;;5509454;26;20487;-65
2024/04/17 10:42:08;;;;;;;603.50;583.13;;;8.10;99.90;;;;;;5523302;25;20527;-64
2024/04/17 10:44:36;;;;;;;333.37;322.77;;;8.30;99.90;;;;;;5508220;25;20456;-65
2024/04/17 10:47:08;;;;;;;181.67;174.87;;;8.60;99.90;;;;;;5523849;25;20468;-65
2024/04/17 10:49:38;;;;;;;222.53;215.07;;;8.90;99.90;;;;;;5487231;25;20962;-63
2024/04/17 10:52:07;;;;;;;238.53;230.70;;;9.60;99.90;;;;;;5515166;26;20520;-64
2024/04/17 10:54:34;;;;;;;108.60;104.10;;;10.20;91.00;;;;;;5489080;25;20462;-65
2024/04/17 10:57:04;;;;;;;104.60;100.13;;;10.40;84.90;;;;;;5502843;26;20570;-64
2024/04/17 10:59:30;;;;;;;67.37;63.97;;;10.20;77.00;;;;;;5507029;25;20473;-65
2024/04/17 11:01:58;;;;;;;44.37;41.93;;;9.90;73.90;;;;;;5490067;26;20567;-64
2024/04/17 11:04:27;;;;;;;23.37;22.03;;;9.90;77.80;;;;;;5490318;26;20473;-64
2024/04/17 11:06:55;;;;;;;19.40;18.10;;;10.00;75.80;;;;;;5490350;26;20461;-65
2024/04/17 11:09:21;;;;;;;20.83;19.30;;;10.10;77.00;;;;;;5490372;26;20457;-65
2024/04/17 11:11:50;;;;;;;12.57;11.23;;;10.60;77.40;;;;;;5514205;26;20460;-65
2024/04/17 11:14:16;;;;;;;51.90;49.37;;;11.50;70.40;;;;;;5525840;25;20267;-65
2024/04/17 11:16:45;;;;;;;49.17;46.83;;;12.20;54.60;;;;;;5513688;26;20472;-66
2024/04/17 11:19:11;;;;;;;23.77;22.33;;;13.00;30.60;;;;;;5526947;25;20584;-64
2024/04/17 11:21:42;;;;;;;8.33;3.27;;;14.50;29.10;;;;;;5489767;26;20466;-65
2024/04/17 11:24:17;;;;;;;8.03;3.13;;;14.60;14.60;;;;;;5489884;26;20812;-65
2024/04/17 11:26:45;;;;;;;14.83;7.00;;;15.40;1.20;;;;;;5513398;26;20455;-65
2024/04/17 11:29:14;;;;;;;8.47;2.83;;;15.30;1.00;;;;;;5496197;25;20458;-65
2024/04/17 11:31:43;;;;;;;7.20;3.00;;;14.80;1.00;;;;;;5526438;25;20889;-65
2024/04/17 11:34:18;;;;;;;8.80;2.50;;;15.00;1.00;;;;;;5496435;25;20482;-65
2024/04/17 11:36:49;;;;;;;6.37;2.70;;;14.40;1.00;;;;;;5504997;26;20457;-65
2024/04/17 11:39:15;;;;;;;7.00;2.30;;;15.30;1.00;;;;;;5521474;26;20607;-66
2024/04/17 11:41:44;;;;;;;6.73;2.57;;;16.20;1.00;;;;;;5503052;25;20469;-66
2024/04/17 11:44:10;;;;;;;8.03;3.20;;;16.50;1.00;;;;;;5489521;26;20580;-66
2024/04/17 11:46:39;;;;;;;12.10;3.13;;;16.30;1.00;;;;;;5511615;26;20837;-65
2024/04/17 11:49:08;;;;;;;11.47;2.73;;;15.50;1.00;;;;;;5526394;25;20504;-64
2024/04/17 11:51:36;;;;;;;8.50;2.83;;;15.00;1.00;;;;;;5505080;25;20578;-65
2024/04/17 11:54:05;;;;;;;9.97;3.00;;;13.90;1.00;;;;;;5489816;26;20461;-64
2024/04/17 11:56:33;;;;;;;9.70;2.13;;;13.00;1.00;;;;;;5494599;26;20465;-65
2024/04/17 11:58:59;;;;;;;8.37;2.43;;;11.10;1.00;;;;;;5526507;25;20520;-65
2024/04/17 12:01:28;;;;;;;9.03;3.03;;;10.20;5.20;;;;;;5525707;25;21023;-64
2024/04/17 12:03:53;;;;;;;5.50;2.50;;;8.40;99.90;;;;;;5526054;25;20954;-63
2024/04/17 12:06:22;;;;;;;11.43;3.37;;;6.80;99.90;;;;;;5525408;25;20468;-63
2024/04/17 12:08:48;;;;;;;13.97;12.67;;;5.90;99.90;;;;;;5526426;25;20228;-64
2024/04/17 12:11:19;;;;;;;24.30;22.73;;;5.50;99.90;;;;;;5510462;25;21056;-64
2024/04/17 12:13:45;;;;;;;37.67;35.63;;;6.30;99.90;;;;;;5526184;25;20291;-65
2024/04/17 12:16:13;;;;;;;107.83;103.97;;;6.80;99.90;;;;;;5526213;25;20546;-64